createdAt,value
2023-01-07T00:01:42.204Z,98629.72
2023-01-07T00:04:13.776Z,98629.66
2023-01-07T00:06:42.282Z,98640.41
2023-01-07T00:09:13.108Z,98637.94
2023-01-07T00:11:41.208Z,98638.41
2023-01-07T00:14:10.766Z,98638.13
2023-01-07T00:16:38.362Z,98626.44
2023-01-07T00:19:07.355Z,98626.38
2023-01-07T00:21:34.467Z,98636.56
2023-01-07T00:24:03.673Z,98625.84
2023-01-07T00:26:32.991Z,98629.53
2023-01-07T00:29:00.422Z,98632.75
2023-01-07T00:31:32.714Z,98639.16
2023-01-07T00:34:00.359Z,98636.31
2023-01-07T00:36:29.405Z,98637.06
2023-01-07T00:39:05.110Z,98637.88
2023-01-07T00:41:32.146Z,98638.97
2023-01-07T00:43:59.379Z,98638.97
2023-01-07T00:46:26.841Z,98638.75
2023-01-07T00:48:53.726Z,98639.59
2023-01-07T00:51:20.840Z,98638.13
2023-01-07T00:53:48.091Z,98641.53
2023-01-07T00:56:16.286Z,98648.00
2023-01-07T00:58:43.229Z,98646.22
2023-01-07T01:01:11.097Z,98655.22
2023-01-07T01:03:38.654Z,98651.16
2023-01-07T01:06:08.160Z,98648.25
2023-01-07T01:08:35.233Z,98659.03
2023-01-07T01:11:06.827Z,98647.09
2023-01-07T01:13:34.679Z,98655.44
2023-01-07T01:16:01.977Z,98665.53
2023-01-07T01:18:29.111Z,98665.03
2023-01-07T01:20:56.020Z,98667.25
2023-01-07T01:23:22.973Z,98662.44
2023-01-07T01:25:49.879Z,98663.84
2023-01-07T01:28:16.795Z,98656.22
2023-01-07T01:30:43.682Z,98656.56
2023-01-07T01:33:10.633Z,98655.31
2023-01-07T01:35:41.618Z,98659.75
2023-01-07T01:38:08.522Z,98665.31
2023-01-07T01:40:35.465Z,98653.88
2023-01-07T01:43:02.356Z,98663.53
2023-01-07T01:45:29.916Z,98657.41
2023-01-07T01:48:08.969Z,98648.94
2023-01-07T01:50:41.691Z,98650.81
2023-01-07T01:53:12.382Z,98657.63
2023-01-07T01:55:53.604Z,98648.28
2023-01-07T01:58:24.441Z,98643.16
2023-01-07T02:00:51.714Z,98647.41
2023-01-07T02:03:20.622Z,98642.91
2023-01-07T02:05:48.230Z,98639.41
2023-01-07T02:08:22.097Z,98630.81
2023-01-07T02:10:55.556Z,98622.37
2023-01-07T02:13:52.590Z,98625.62
2023-01-07T02:16:26.865Z,98622.34
2023-01-07T02:19:09.294Z,98627.63
2023-01-07T02:21:47.362Z,98620.16
2023-01-07T02:24:23.139Z,98616.50
2023-01-07T02:27:25.373Z,98613.66
2023-01-07T02:30:27.701Z,98618.44
2023-01-07T02:33:17.570Z,98611.31
2023-01-07T02:35:55.987Z,98619.31
2023-01-07T02:38:37.404Z,98614.37
2023-01-07T02:41:11.817Z,98614.03
2023-01-07T02:43:47.421Z,98611.19
2023-01-07T02:46:41.377Z,98613.56
2023-01-07T02:49:09.990Z,98608.31
2023-01-07T02:51:39.276Z,98612.53
2023-01-07T02:54:28.705Z,98613.13
2023-01-07T02:57:21.462Z,98609.44
2023-01-07T03:00:09.596Z,98607.00
2023-01-07T03:03:11.804Z,98609.31
2023-01-07T03:05:42.021Z,98603.66
2023-01-07T03:08:36.685Z,98611.38
2023-01-07T03:11:06.292Z,98618.47
2023-01-07T03:13:42.112Z,98609.00
2023-01-07T03:16:32.850Z,98618.22
2023-01-07T03:19:18.690Z,98608.28
2023-01-07T03:21:46.859Z,98608.53
2023-01-07T03:24:14.292Z,98608.38
2023-01-07T03:26:46.639Z,98607.75
2023-01-07T03:29:15.119Z,98610.22
2023-01-07T03:31:49.606Z,98607.88
2023-01-07T03:34:19.493Z,98605.63
2023-01-07T03:36:53.278Z,98597.94
2023-01-07T03:39:23.295Z,98592.56
2023-01-07T03:42:09.863Z,98601.75
2023-01-07T03:44:37.276Z,98597.87
2023-01-07T03:47:04.665Z,98601.94
2023-01-07T03:49:32.591Z,98607.47
2023-01-07T03:51:59.483Z,98602.94
2023-01-07T03:54:26.362Z,98603.03
2023-01-07T03:56:53.224Z,98605.69
2023-01-07T03:59:20.119Z,98604.56
2023-01-07T04:01:47.062Z,98606.19
2023-01-07T04:04:14.063Z,98607.41
2023-01-07T04:06:41.020Z,98611.59
2023-01-07T04:09:07.954Z,98614.31
2023-01-07T04:11:34.850Z,98612.13
2023-01-07T04:14:01.736Z,98602.78
2023-01-07T04:16:28.755Z,98605.19
2023-01-07T04:18:55.756Z,98602.06
2023-01-07T04:21:22.510Z,98601.88
2023-01-07T04:23:49.428Z,98608.19
2023-01-07T04:26:16.354Z,98605.59
2023-01-07T04:28:43.223Z,98606.63
2023-01-07T04:31:10.172Z,98603.22
2023-01-07T04:33:37.063Z,98602.66
2023-01-07T04:36:03.953Z,98606.13
2023-01-07T04:38:31.306Z,98602.97
2023-01-07T04:40:58.242Z,98607.75
2023-01-07T04:43:25.112Z,98603.81
2023-01-07T04:45:52.080Z,98611.31
2023-01-07T04:48:19.004Z,98614.63
2023-01-07T04:50:47.585Z,98617.38
2023-01-07T04:53:15.106Z,98624.06
2023-01-07T04:55:42.309Z,98619.88
2023-01-07T04:58:09.248Z,98620.81
2023-01-07T05:00:36.148Z,98614.91
2023-01-07T05:03:03.069Z,98622.16
2023-01-07T05:05:29.927Z,98616.56
2023-01-07T05:07:56.769Z,98620.19
2023-01-07T05:10:23.426Z,98622.09
2023-01-07T05:12:50.272Z,98619.41
2023-01-07T05:15:17.034Z,98617.72
2023-01-07T05:17:43.868Z,98619.94
2023-01-07T05:20:10.749Z,98622.84
2023-01-07T05:22:37.612Z,98626.53
2023-01-07T05:25:04.689Z,98627.03
2023-01-07T05:27:31.569Z,98635.44
2023-01-07T05:29:58.438Z,98627.59
2023-01-07T05:32:25.303Z,98634.53
2023-01-07T05:34:52.183Z,98631.19
2023-01-07T05:37:19.029Z,98632.81
2023-01-07T05:39:45.687Z,98629.34
2023-01-07T05:42:12.516Z,98624.00
2023-01-07T05:44:39.180Z,98627.47
2023-01-07T05:47:06.129Z,98626.06
2023-01-07T05:49:32.972Z,98617.53
2023-01-07T05:51:59.849Z,98632.75
2023-01-07T05:54:26.684Z,98632.78
2023-01-07T05:56:53.373Z,98630.50
2023-01-07T05:59:20.283Z,98628.03
2023-01-07T06:01:47.188Z,98624.16
2023-01-07T06:04:14.040Z,98626.84
2023-01-07T06:06:40.905Z,98624.13
2023-01-07T06:09:07.849Z,98625.53
2023-01-07T06:11:34.695Z,98619.59
2023-01-07T06:14:01.362Z,98625.09
2023-01-07T06:16:28.246Z,98626.22
2023-01-07T06:18:55.093Z,98619.34
2023-01-07T06:21:21.779Z,98624.31
2023-01-07T06:23:48.729Z,98618.94
2023-01-07T06:26:15.592Z,98617.06
2023-01-07T06:28:42.471Z,98615.09
2023-01-07T06:31:10.831Z,98624.19
2023-01-07T06:33:40.923Z,98610.12
2023-01-07T06:36:08.455Z,98609.19
2023-01-07T06:38:35.390Z,98612.75
2023-01-07T06:41:02.433Z,98613.25
2023-01-07T06:43:29.855Z,98615.59
2023-01-07T06:45:56.807Z,98618.75
2023-01-07T06:48:23.691Z,98611.91
2023-01-07T06:50:50.378Z,98622.84
2023-01-07T06:53:17.653Z,98626.31
2023-01-07T06:55:51.292Z,98624.59
2023-01-07T06:58:18.409Z,98626.72
2023-01-07T07:00:45.552Z,98627.34
2023-01-07T07:03:12.585Z,98627.63
2023-01-07T07:05:39.518Z,98631.91
2023-01-07T07:08:06.684Z,98621.66
2023-01-07T07:10:33.992Z,98624.00
2023-01-07T07:13:00.867Z,98627.78
2023-01-07T07:15:27.721Z,98626.25
2023-01-07T07:17:54.391Z,98627.03
2023-01-07T07:20:21.290Z,98634.09
2023-01-07T07:22:49.055Z,98632.75
2023-01-07T07:25:16.160Z,98634.72
2023-01-07T07:27:46.511Z,98635.88
2023-01-07T07:30:15.051Z,98640.78
2023-01-07T07:32:42.411Z,98638.22
2023-01-07T07:35:10.319Z,98640.47
2023-01-07T07:37:37.515Z,98640.44
2023-01-07T07:40:05.705Z,98644.37
2023-01-07T07:42:32.608Z,98644.66
2023-01-07T07:45:19.988Z,98639.78
2023-01-07T07:47:47.240Z,98639.84
2023-01-07T07:50:14.184Z,98643.63
2023-01-07T07:52:41.073Z,98635.22
2023-01-07T07:55:19.852Z,98640.25
2023-01-07T07:57:49.172Z,98633.88
2023-01-07T08:00:16.253Z,98639.31
2023-01-07T08:02:43.102Z,98640.47
2023-01-07T08:05:11.593Z,98637.22
2023-01-07T08:07:39.353Z,98645.72
2023-01-07T08:10:07.237Z,98633.25
2023-01-07T08:12:37.828Z,98628.47
2023-01-07T08:15:06.195Z,98637.06
2023-01-07T08:17:33.184Z,98633.34
2023-01-07T08:20:00.212Z,98635.19
2023-01-07T08:22:27.075Z,98628.37
2023-01-07T08:24:53.926Z,98638.94
2023-01-07T08:27:21.251Z,98631.94
2023-01-07T08:29:48.357Z,98628.59
2023-01-07T08:32:15.320Z,98626.00
2023-01-07T08:34:42.149Z,98630.16
2023-01-07T08:37:09.058Z,98630.84
2023-01-07T08:39:35.945Z,98628.50
2023-01-07T08:42:02.773Z,98628.75
2023-01-07T08:44:29.631Z,98628.84
2023-01-07T08:46:56.557Z,98633.31
2023-01-07T08:49:23.448Z,98626.03
2023-01-07T08:51:50.305Z,98625.16
2023-01-07T08:54:17.238Z,98624.69
2023-01-07T08:56:44.110Z,98629.28
2023-01-07T08:59:11.053Z,98626.88
2023-01-07T09:01:38.116Z,98628.03
2023-01-07T09:04:05.257Z,98624.25
2023-01-07T09:06:32.087Z,98629.03
2023-01-07T09:08:58.929Z,98624.09
2023-01-07T09:11:25.767Z,98628.00
2023-01-07T09:13:52.655Z,98624.03
2023-01-07T09:16:19.556Z,98625.03
2023-01-07T09:18:46.399Z,98628.47
2023-01-07T09:21:13.274Z,98623.81
2023-01-07T09:23:40.598Z,98615.81
2023-01-07T09:26:08.022Z,98621.91
2023-01-07T09:28:34.889Z,98618.78
2023-01-07T09:31:03.228Z,98609.34
2023-01-07T09:33:30.263Z,98604.91
2023-01-07T09:35:57.206Z,98604.56
2023-01-07T09:38:24.080Z,98602.66
2023-01-07T09:40:51.144Z,98603.91
2023-01-07T09:44:00.646Z,98601.50
2023-01-07T09:46:29.584Z,98594.25
2023-01-07T09:49:00.477Z,98589.09
2023-01-07T09:51:41.242Z,98583.56
2023-01-07T09:54:33.763Z,98586.47
2023-01-07T09:57:00.790Z,98581.13
2023-01-07T09:59:27.795Z,98580.75
2023-01-07T10:02:21.148Z,98578.41
2023-01-07T10:04:59.227Z,98570.31
2023-01-07T10:07:39.761Z,98570.81
2023-01-07T10:10:26.018Z,98574.50
2023-01-07T10:13:04.955Z,98572.94
2023-01-07T10:15:45.742Z,98566.97
2023-01-07T10:18:26.301Z,98559.91
2023-01-07T10:21:22.327Z,98555.91
2023-01-07T10:24:03.519Z,98557.94
2023-01-07T10:26:51.886Z,98546.84
2023-01-07T10:29:46.111Z,98549.84
2023-01-07T10:32:18.356Z,98550.16
2023-01-07T10:34:48.069Z,98539.41
2023-01-07T10:37:27.609Z,98543.19
2023-01-07T10:40:07.078Z,98529.25
2023-01-07T10:42:43.719Z,98529.25
2023-01-07T10:45:24.548Z,98522.09
2023-01-07T10:48:05.726Z,98523.09
2023-01-07T10:50:44.515Z,98511.62
2023-01-07T10:53:19.183Z,98514.34
2023-01-07T10:55:58.227Z,98506.53
2023-01-07T10:58:28.000Z,98512.00
2023-01-07T11:00:55.120Z,98497.66
2023-01-07T11:03:23.474Z,98500.78
2023-01-07T11:06:06.513Z,98495.25
2023-01-07T11:08:41.000Z,98493.28
2023-01-07T11:11:15.923Z,98493.72
2023-01-07T11:13:43.704Z,98489.66
2023-01-07T11:16:12.567Z,98487.66
2023-01-07T11:18:52.055Z,98475.56
2023-01-07T11:21:43.854Z,98474.66
2023-01-07T11:24:31.446Z,98469.37
2023-01-07T11:27:14.418Z,98462.31
2023-01-07T11:29:53.397Z,98453.00
2023-01-07T11:32:40.871Z,98442.53
2023-01-07T11:35:22.737Z,98439.88
2023-01-07T11:37:50.427Z,98435.47
2023-01-07T11:40:26.051Z,98432.28
2023-01-07T11:43:21.037Z,98436.25
2023-01-07T11:46:19.322Z,98426.38
2023-01-07T11:49:00.981Z,98419.44
2023-01-07T11:51:39.388Z,98428.47
2023-01-07T11:54:06.277Z,98422.03
2023-01-07T11:56:34.309Z,98420.75
2023-01-07T11:59:15.998Z,98421.00
2023-01-07T12:01:53.851Z,98417.84
2023-01-07T12:04:34.756Z,98412.72
2023-01-07T12:07:05.322Z,98405.56
2023-01-07T12:09:32.147Z,98396.69
2023-01-07T12:12:03.749Z,98395.19
2023-01-07T12:14:32.489Z,98402.50
2023-01-07T12:17:15.626Z,98400.53
2023-01-07T12:19:52.653Z,98387.28
2023-01-07T12:22:48.707Z,98385.97
2023-01-07T12:25:36.707Z,98378.47
2023-01-07T12:28:16.525Z,98381.94
2023-01-07T12:30:55.195Z,98379.06
2023-01-07T12:33:34.924Z,98368.63
2023-01-07T12:36:08.789Z,98373.28
2023-01-07T12:38:44.218Z,98370.00
2023-01-07T12:41:20.022Z,98366.31
2023-01-07T12:43:57.962Z,98362.31
2023-01-07T12:46:28.419Z,98369.41
2023-01-07T12:49:05.463Z,98369.59
2023-01-07T12:51:44.764Z,98355.06
2023-01-07T12:54:23.003Z,98353.81
2023-01-07T12:57:00.647Z,98347.00
2023-01-07T12:59:46.875Z,98349.09
2023-01-07T13:02:33.661Z,98346.59
2023-01-07T13:05:15.639Z,98352.63
2023-01-07T13:08:20.314Z,98347.28
2023-01-07T13:10:53.108Z,98343.66
2023-01-07T13:13:28.059Z,98356.22
2023-01-07T13:15:55.153Z,98342.41
2023-01-07T13:18:22.094Z,98344.28
2023-01-07T13:21:07.536Z,98341.16
2023-01-07T13:23:42.017Z,98341.84
2023-01-07T13:26:08.787Z,98342.22
2023-01-07T13:28:57.489Z,98333.78
2023-01-07T13:31:43.089Z,98340.25
2023-01-07T13:34:23.986Z,98347.03
2023-01-07T13:37:24.868Z,98342.88
2023-01-07T13:40:20.546Z,98347.41
2023-01-07T13:42:52.874Z,98343.22
2023-01-07T13:45:23.427Z,98345.59
2023-01-07T13:47:58.677Z,98343.28
2023-01-07T13:50:40.902Z,98335.75
2023-01-07T13:53:27.756Z,98349.28
2023-01-07T13:56:17.440Z,98342.06
2023-01-07T13:58:46.403Z,98340.56
2023-01-07T14:01:18.383Z,98346.16
2023-01-07T14:03:58.917Z,98337.50
2023-01-07T14:06:31.337Z,98341.75
2023-01-07T14:09:07.154Z,98341.72
2023-01-07T14:11:33.956Z,98346.87
2023-01-07T14:14:10.450Z,98344.50
2023-01-07T14:16:38.911Z,98348.19
2023-01-07T14:19:25.821Z,98348.28
2023-01-07T14:21:55.582Z,98343.28
2023-01-07T14:24:28.496Z,98339.87
2023-01-07T14:27:14.048Z,98347.25
2023-01-07T14:29:45.265Z,98335.28
2023-01-07T14:32:24.017Z,98340.53
2023-01-07T14:35:00.056Z,98347.81
2023-01-07T14:37:42.394Z,98339.87
2023-01-07T14:40:30.822Z,98336.44
2023-01-07T14:42:58.606Z,98332.87
2023-01-07T14:45:38.079Z,98327.13
2023-01-07T14:48:07.897Z,98322.13
2023-01-07T14:50:47.642Z,98326.78
2023-01-07T14:53:26.542Z,98327.16
2023-01-07T14:56:36.524Z,98318.69
2023-01-07T14:59:15.431Z,98327.25
2023-01-07T15:01:54.952Z,98319.53
2023-01-07T15:04:40.663Z,98317.03
2023-01-07T15:07:14.229Z,98316.34
2023-01-07T15:10:30.016Z,98311.22
2023-01-07T15:13:17.009Z,98308.19
2023-01-07T15:16:02.373Z,98308.19
2023-01-07T15:18:31.249Z,98305.75
2023-01-07T15:21:19.332Z,98307.81
2023-01-07T15:23:59.818Z,98316.59
2023-01-07T15:26:42.003Z,98303.25
2023-01-07T15:29:23.809Z,98301.72
2023-01-07T15:32:28.175Z,98302.06
2023-01-07T15:34:55.236Z,98299.28
2023-01-07T15:37:22.148Z,98301.06
2023-01-07T15:39:53.046Z,98291.47
2023-01-07T15:42:25.668Z,98294.09
2023-01-07T15:44:54.638Z,98291.78
2023-01-07T15:47:37.630Z,98294.09
2023-01-07T15:50:23.871Z,98285.37
2023-01-07T15:52:55.000Z,98286.47
2023-01-07T15:55:27.620Z,98288.44
2023-01-07T15:58:05.668Z,98284.28
2023-01-07T16:00:34.906Z,98288.31
2023-01-07T16:03:02.712Z,98297.38
2023-01-07T16:05:29.713Z,98295.13
2023-01-07T16:07:58.553Z,98289.88
2023-01-07T16:10:29.425Z,98290.06
2023-01-07T16:13:01.703Z,98286.00
2023-01-07T16:15:37.097Z,98292.38
2023-01-07T16:18:09.918Z,98290.09
2023-01-07T16:20:39.036Z,98279.94
2023-01-07T16:23:19.653Z,98281.50
2023-01-07T16:25:51.491Z,98284.03
2023-01-07T16:28:24.420Z,98279.97
2023-01-07T16:30:52.059Z,98282.75
2023-01-07T16:33:21.853Z,98280.50
2023-01-07T16:35:50.107Z,98273.75
2023-01-07T16:38:19.050Z,98277.22
2023-01-07T16:40:46.366Z,98285.13
2023-01-07T16:43:35.212Z,98273.84
2023-01-07T16:46:09.577Z,98271.94
2023-01-07T16:48:36.422Z,98267.75
2023-01-07T16:51:03.494Z,98271.37
2023-01-07T16:53:33.715Z,98276.47
2023-01-07T16:56:06.492Z,98269.13
2023-01-07T16:58:53.150Z,98273.88
2023-01-07T17:01:29.400Z,98274.66
2023-01-07T17:04:01.455Z,98270.44
2023-01-07T17:06:39.025Z,98275.41
2023-01-07T17:09:06.449Z,98275.88
2023-01-07T17:11:38.576Z,98268.34
2023-01-07T17:14:34.246Z,98275.06
2023-01-07T17:17:08.335Z,98272.97
2023-01-07T17:19:46.599Z,98271.28
2023-01-07T17:22:38.302Z,98273.91
2023-01-07T17:25:16.373Z,98273.38
2023-01-07T17:27:55.548Z,98268.75
2023-01-07T17:30:23.583Z,98274.22
2023-01-07T17:32:51.009Z,98277.75
2023-01-07T17:35:22.833Z,98272.91
2023-01-07T17:37:50.219Z,98279.50
2023-01-07T17:40:17.916Z,98282.84
2023-01-07T17:43:04.760Z,98281.47
2023-01-07T17:45:32.089Z,98290.53
2023-01-07T17:48:01.183Z,98293.31
2023-01-07T17:50:36.446Z,98294.34
2023-01-07T17:53:04.218Z,98292.69
2023-01-07T17:55:32.339Z,98298.00
2023-01-07T17:57:59.226Z,98294.75
2023-01-07T18:00:27.580Z,98294.25
2023-01-07T18:02:54.494Z,98279.94
2023-01-07T18:05:23.799Z,98289.19
2023-01-07T18:07:51.818Z,98284.31
2023-01-07T18:10:21.308Z,98288.41
2023-01-07T18:12:48.308Z,98280.97
2023-01-07T18:15:21.972Z,98292.84
2023-01-07T18:17:48.833Z,98285.94
2023-01-07T18:20:16.521Z,98283.41
2023-01-07T18:22:43.841Z,98290.16
2023-01-07T18:25:22.192Z,98284.47
2023-01-07T18:27:52.906Z,98293.25
2023-01-07T18:30:21.776Z,98289.75
2023-01-07T18:32:49.692Z,98288.38
2023-01-07T18:35:19.240Z,98295.31
2023-01-07T18:37:50.244Z,98291.47
2023-01-07T18:40:17.383Z,98293.97
2023-01-07T18:42:44.225Z,98287.47
2023-01-07T18:45:11.471Z,98287.66
2023-01-07T18:47:39.263Z,98289.53
2023-01-07T18:50:06.673Z,98286.13
2023-01-07T18:52:34.085Z,98293.78
2023-01-07T18:55:00.953Z,98284.75
2023-01-07T18:57:27.830Z,98289.75
2023-01-07T18:59:54.691Z,98296.34
2023-01-07T19:02:21.956Z,98289.09
2023-01-07T19:04:49.357Z,98281.31
2023-01-07T19:07:17.176Z,98286.87
2023-01-07T19:09:44.471Z,98284.47
2023-01-07T19:12:12.378Z,98276.59
2023-01-07T19:14:39.681Z,98283.94
2023-01-07T19:17:07.898Z,98282.84
2023-01-07T19:19:47.296Z,98276.53
2023-01-07T19:22:16.300Z,98273.28
2023-01-07T19:24:43.603Z,98274.12
2023-01-07T19:27:10.982Z,98266.50
2023-01-07T19:29:37.928Z,98268.38
2023-01-07T19:32:05.118Z,98266.59
2023-01-07T19:34:32.094Z,98263.91
2023-01-07T19:36:58.911Z,98262.94
2023-01-07T19:39:25.646Z,98255.41
2023-01-07T19:41:52.518Z,98257.19
2023-01-07T19:44:19.482Z,98267.00
2023-01-07T19:46:46.432Z,98259.47
2023-01-07T19:49:13.678Z,98267.62
2023-01-07T19:51:41.797Z,98266.84
2023-01-07T19:54:11.899Z,98266.78
2023-01-07T19:56:40.396Z,98271.13
2023-01-07T19:59:07.310Z,98273.25
2023-01-07T20:01:34.402Z,98274.91
2023-01-07T20:04:01.374Z,98277.31
2023-01-07T20:06:29.250Z,98273.97
2023-01-07T20:08:58.010Z,98263.31
2023-01-07T20:11:25.399Z,98262.03
2023-01-07T20:13:52.272Z,98263.94
2023-01-07T20:16:24.790Z,98267.47
2023-01-07T20:18:53.866Z,98256.88
2023-01-07T20:21:22.745Z,98261.97
2023-01-07T20:23:49.916Z,98255.72
2023-01-07T20:26:20.162Z,98257.41
2023-01-07T20:28:47.099Z,98257.97
2023-01-07T20:31:16.552Z,98261.06
2023-01-07T20:33:44.586Z,98254.97
2023-01-07T20:36:17.060Z,98259.28
2023-01-07T20:38:44.740Z,98262.56
2023-01-07T20:41:16.862Z,98258.88
2023-01-07T20:43:43.782Z,98254.97
2023-01-07T20:46:10.808Z,98262.25
2023-01-07T20:48:38.102Z,98258.03
2023-01-07T20:51:06.929Z,98260.59
2023-01-07T20:53:34.306Z,98263.91
2023-01-07T20:56:01.598Z,98253.56
2023-01-07T20:58:31.395Z,98258.97
2023-01-07T21:00:58.554Z,98252.88
2023-01-07T21:03:25.856Z,98260.69
2023-01-07T21:05:57.154Z,98246.13
2023-01-07T21:08:24.454Z,98251.19
2023-01-07T21:10:52.118Z,98241.97
2023-01-07T21:13:19.872Z,98236.28
2023-01-07T21:15:46.717Z,98237.09
2023-01-07T21:18:13.363Z,98237.88
2023-01-07T21:20:41.040Z,98230.56
2023-01-07T21:23:08.162Z,98228.47
2023-01-07T21:25:35.144Z,98230.06
2023-01-07T21:28:03.482Z,98231.97
2023-01-07T21:30:30.429Z,98228.34
2023-01-07T21:32:58.592Z,98223.56
2023-01-07T21:35:25.592Z,98222.78
2023-01-07T21:37:54.164Z,98221.72
2023-01-07T21:40:21.777Z,98217.31
2023-01-07T21:42:48.668Z,98220.28
2023-01-07T21:45:15.840Z,98226.72
2023-01-07T21:47:42.857Z,98222.72
2023-01-07T21:50:09.934Z,98217.03
2023-01-07T21:52:37.342Z,98214.06
2023-01-07T21:55:04.849Z,98208.63
2023-01-07T21:57:31.758Z,98211.94
2023-01-07T21:59:58.611Z,98210.63
2023-01-07T22:02:25.244Z,98206.88
2023-01-07T22:04:52.073Z,98209.22
2023-01-07T22:07:19.135Z,98206.66
2023-01-07T22:09:46.512Z,98192.47
2023-01-07T22:12:14.550Z,98204.09
2023-01-07T22:14:41.524Z,98194.22
2023-01-07T22:17:09.668Z,98200.06
2023-01-07T22:19:36.683Z,98202.84
2023-01-07T22:22:03.648Z,98211.38
2023-01-07T22:24:30.569Z,98207.03
2023-01-07T22:26:57.545Z,98206.91
2023-01-07T22:29:24.605Z,98194.37
2023-01-07T22:31:52.983Z,98196.81
2023-01-07T22:34:20.249Z,98196.44
2023-01-07T22:37:01.895Z,98186.25
2023-01-07T22:39:57.185Z,98200.84
2023-01-07T22:42:29.311Z,98197.34
2023-01-07T22:45:01.059Z,98192.84
2023-01-07T22:47:32.891Z,98188.34
2023-01-07T22:50:01.674Z,98181.72
2023-01-07T22:52:28.582Z,98178.06
2023-01-07T22:54:56.319Z,98177.88
2023-01-07T22:57:23.171Z,98165.06
2023-01-07T22:59:49.812Z,98169.78
2023-01-07T23:02:16.674Z,98167.19
2023-01-07T23:04:43.353Z,98162.63
2023-01-07T23:07:10.239Z,98167.91
2023-01-07T23:09:37.110Z,98169.84
2023-01-07T23:12:04.127Z,98167.22
2023-01-07T23:14:31.013Z,98166.28
2023-01-07T23:16:59.172Z,98159.25
2023-01-07T23:19:26.072Z,98166.13
2023-01-07T23:21:54.470Z,98164.19
2023-01-07T23:24:22.427Z,98163.50
2023-01-07T23:26:51.117Z,98160.25
2023-01-07T23:29:18.706Z,98163.13
2023-01-07T23:31:45.765Z,98154.50
2023-01-07T23:34:13.577Z,98161.63
2023-01-07T23:36:40.427Z,98148.81
2023-01-07T23:39:07.149Z,98148.19
2023-01-07T23:41:34.306Z,98147.72
2023-01-07T23:44:01.147Z,98145.25
2023-01-07T23:46:27.855Z,98146.69
2023-01-07T23:48:54.703Z,98150.94
2023-01-07T23:51:21.545Z,98151.84
2023-01-07T23:53:48.866Z,98133.16
2023-01-07T23:56:20.404Z,98142.25
2023-01-07T23:58:47.594Z,98137.97
